Zeran (malta) — 9HHJ5 — position and weather

sailwx.info

Track history (hours):
 
Tides and Currents Weather Stations Pressure Air Temp Water Temp Dewpoint Dewpoint Depression Visibility Wind Speed Wind Dir Waves Ship Positions

Zeran (malta)

Last reported at 2014-Aug-29 05:32 UTC. Time now 2014-Sep-01 18:33 UTC.
Position N 33°60' E 014°27'.

Length 148 m; beam 24 m.

Type: Cargo ship. MMSI: 249846000.

Date/timePositionNaut miles runAvg speedWind from/ knotsBaromVisibWave heightAir tempDewpointWater temp
2014-Aug-29 05:32N 33°60' E 014°27'18 7.8
2014-Aug-29 03:11N 33°43' E 014°36'1810.4
2014-Aug-29 01:27N 33°27' E 014°45'910.2
2014-Aug-29 00:33N 33°19' E 014°50'60 5.9
2014-Aug-28 14:22N 32°22' E 015°13'0 0.0
2014-Aug-28 12:16N 32°22' E 015°13'0 0.0
2014-Aug-28 03:28N 32°22' E 015°13'0 0.0
2014-Aug-28 02:28N 32°22' E 015°13'0 0.0
2014-Aug-27 14:31N 32°22' E 015°13'0 0.0
2014-Aug-27 12:25N 32°22' E 015°13'0 0.0
2014-Aug-27 11:31N 32°22' E 015°13'0 0.0
2014-Aug-27 10:25N 32°22' E 015°13'0 0.0
2014-Aug-27 09:13N 32°22' E 015°13'0 0.0
2014-Aug-27 08:31N 32°22' E 015°13'0 0.0
2014-Aug-27 07:31N 32°22' E 015°13'12 4.0
2014-Aug-27 04:22N 32°34' E 015°15'7 7.8
2014-Aug-27 03:31N 32°37' E 015°08'8 8.0
2014-Aug-27 02:33N 32°40' E 014°60'33 7.9
2014-Aug-26 22:24N 32°51' E 014°23'7 7.9
2014-Aug-26 21:30N 32°54' E 014°15'17 7.8
2014-Aug-26 19:18N 33°00' E 013°57'23 8.5
2014-Aug-26 16:33N 33°06' E 013°29'9 8.8
2014-Aug-26 15:33N 33°05' E 013°19'1010.2
2014-Aug-26 14:33N 32°56' E 013°13'141 2.9
2014-Aug-24 14:34N 35°13' E 012°31'9 9.1
2014-Aug-24 13:32N 35°22' E 012°28'9 9.2
2014-Aug-24 12:33N 35°31' E 012°26'10 9.0
2014-Aug-24 11:30N 35°40' E 012°21'116 9.4
2014-Aug-23 23:10N 37°26' E 011°26'21610.0
2014-Aug-23 01:31N 40°50' E 009°54'15810.6
2014-Aug-22 10:33N 43°26' E 009°25'1110.8
2014-Aug-22 09:33N 43°37' E 009°20'1110.7
2014-Aug-22 08:33N 43°47' E 009°14'1110.6
2014-Aug-22 07:33N 43°56' E 009°09'1110.8
2014-Aug-22 06:34N 44°07' E 009°04'1110.8
2014-Aug-22 05:33N 44°17' E 008°59'8 8.2
2014-Aug-22 04:32N 44°24' E 008°53'1 0.6
2014-Aug-22 03:33N 44°24' E 008°53'0 0.0
2014-Aug-22 02:30N 44°24' E 008°53'0 0.0
2014-Aug-22 01:33N 44°24' E 008°53'0 0.0
2014-Aug-22 00:33N 44°24' E 008°53'0 0.0
2014-Aug-21 23:27N 44°24' E 008°53'0 0.0
2014-Aug-21 21:33N 44°24' E 008°53'0 0.0
2014-Aug-21 20:33N 44°24' E 008°53'0 0.0
2014-Aug-21 19:27N 44°24' E 008°53'0 0.0
2014-Aug-21 18:33N 44°24' E 008°53'0 0.0
2014-Aug-21 15:30N 44°24' E 008°53'0 0.0
2014-Aug-21 14:30N 44°24' E 008°53'0 0.0
2014-Aug-21 13:33N 44°24' E 008°53'0 0.0
2014-Aug-21 12:21N 44°24' E 008°53'0 0.0
2014-Aug-21 11:24N 44°24' E 008°53'0 0.0
2014-Aug-21 10:21N 44°24' E 008°53'0 0.0
2014-Aug-21 09:21N 44°24' E 008°53'0 0.0
2014-Aug-21 07:24N 44°24' E 008°53'0 0.0
2014-Aug-21 05:21N 44°24' E 008°53'0 0.0
2014-Aug-21 04:33N 44°24' E 008°53'0 0.0
2014-Aug-21 03:33N 44°24' E 008°53'0 0.0
2014-Aug-21 02:15N 44°24' E 008°53'0 0.0
2014-Aug-21 01:23N 44°24' E 008°53'0 0.0
2014-Aug-21 00:30N 44°24' E 008°53'0 0.0
2014-Aug-20 23:33N 44°24' E 008°53'0 0.0
2014-Aug-20 22:33N 44°24' E 008°53'0 0.0
2014-Aug-20 21:33N 44°24' E 008°53'0 0.0
2014-Aug-20 20:31N 44°24' E 008°53'3 3.4
2014-Aug-20 19:33N 44°23' E 008°57'1010.2
2014-Aug-20 18:33N 44°14' E 009°02'1211.8
2014-Aug-20 17:33N 44°02' E 009°07'1211.6
2014-Aug-20 16:33N 43°52' E 009°13'1211.7
2014-Aug-20 15:33N 43°40' E 009°18'1111.5
2014-Aug-20 14:33N 43°30' E 009°24'  
Track history (hours):
 
Tides and Currents Weather Stations Pressure Air Temp Water Temp Dewpoint Dewpoint Depression Visibility Wind Speed Wind Dir Waves Ship Positions

Zeran (malta)

Last reported at 2014-Aug-29 05:32 UTC. Time now 2014-Sep-01 18:33 UTC.
Position N 33°60' E 014°27'.

Length 148 m; beam 24 m.

Type: Cargo ship. MMSI: 249846000.

Date/timePositionNaut miles runAvg speedWind from/ knotsBaromVisibWave heightAir tempDewpointWater temp
2014-Aug-29 05:32N 33°60' E 014°27'18 7.8
2014-Aug-29 03:11N 33°43' E 014°36'1810.4
2014-Aug-29 01:27N 33°27' E 014°45'910.2
2014-Aug-29 00:33N 33°19' E 014°50'60 5.9
2014-Aug-28 14:22N 32°22' E 015°13'0 0.0
2014-Aug-28 12:16N 32°22' E 015°13'0 0.0
2014-Aug-28 03:28N 32°22' E 015°13'0 0.0
2014-Aug-28 02:28N 32°22' E 015°13'0 0.0
2014-Aug-27 14:31N 32°22' E 015°13'0 0.0
2014-Aug-27 12:25N 32°22' E 015°13'0 0.0
2014-Aug-27 11:31N 32°22' E 015°13'0 0.0
2014-Aug-27 10:25N 32°22' E 015°13'0 0.0
2014-Aug-27 09:13N 32°22' E 015°13'0 0.0
2014-Aug-27 08:31N 32°22' E 015°13'0 0.0
2014-Aug-27 07:31N 32°22' E 015°13'12 4.0
2014-Aug-27 04:22N 32°34' E 015°15'7 7.8
2014-Aug-27 03:31N 32°37' E 015°08'8 8.0
2014-Aug-27 02:33N 32°40' E 014°60'33 7.9
2014-Aug-26 22:24N 32°51' E 014°23'7 7.9
2014-Aug-26 21:30N 32°54' E 014°15'17 7.8
2014-Aug-26 19:18N 33°00' E 013°57'23 8.5
2014-Aug-26 16:33N 33°06' E 013°29'9 8.8
2014-Aug-26 15:33N 33°05' E 013°19'1010.2
2014-Aug-26 14:33N 32°56' E 013°13'141 2.9
2014-Aug-24 14:34N 35°13' E 012°31'9 9.1
2014-Aug-24 13:32N 35°22' E 012°28'9 9.2
2014-Aug-24 12:33N 35°31' E 012°26'10 9.0
2014-Aug-24 11:30N 35°40' E 012°21'116 9.4
2014-Aug-23 23:10N 37°26' E 011°26'21610.0
2014-Aug-23 01:31N 40°50' E 009°54'15810.6
2014-Aug-22 10:33N 43°26' E 009°25'1110.8
2014-Aug-22 09:33N 43°37' E 009°20'1110.7
2014-Aug-22 08:33N 43°47' E 009°14'1110.6
2014-Aug-22 07:33N 43°56' E 009°09'1110.8
2014-Aug-22 06:34N 44°07' E 009°04'1110.8
2014-Aug-22 05:33N 44°17' E 008°59'8 8.2
2014-Aug-22 04:32N 44°24' E 008°53'1 0.6
2014-Aug-22 03:33N 44°24' E 008°53'0 0.0
2014-Aug-22 02:30N 44°24' E 008°53'0 0.0
2014-Aug-22 01:33N 44°24' E 008°53'0 0.0
2014-Aug-22 00:33N 44°24' E 008°53'0 0.0
2014-Aug-21 23:27N 44°24' E 008°53'0 0.0
2014-Aug-21 21:33N 44°24' E 008°53'0 0.0
2014-Aug-21 20:33N 44°24' E 008°53'0 0.0
2014-Aug-21 19:27N 44°24' E 008°53'0 0.0
2014-Aug-21 18:33N 44°24' E 008°53'0 0.0
2014-Aug-21 15:30N 44°24' E 008°53'0 0.0
2014-Aug-21 14:30N 44°24' E 008°53'0 0.0
2014-Aug-21 13:33N 44°24' E 008°53'0 0.0
2014-Aug-21 12:21N 44°24' E 008°53'0 0.0
2014-Aug-21 11:24N 44°24' E 008°53'0 0.0
2014-Aug-21 10:21N 44°24' E 008°53'0 0.0
2014-Aug-21 09:21N 44°24' E 008°53'0 0.0
2014-Aug-21 07:24N 44°24' E 008°53'0 0.0
2014-Aug-21 05:21N 44°24' E 008°53'0 0.0
2014-Aug-21 04:33N 44°24' E 008°53'0 0.0
2014-Aug-21 03:33N 44°24' E 008°53'0 0.0
2014-Aug-21 02:15N 44°24' E 008°53'0 0.0
2014-Aug-21 01:23N 44°24' E 008°53'0 0.0
2014-Aug-21 00:30N 44°24' E 008°53'0 0.0
2014-Aug-20 23:33N 44°24' E 008°53'0 0.0
2014-Aug-20 22:33N 44°24' E 008°53'0 0.0
2014-Aug-20 21:33N 44°24' E 008°53'0 0.0
2014-Aug-20 20:31N 44°24' E 008°53'3 3.4
2014-Aug-20 19:33N 44°23' E 008°57'1010.2
2014-Aug-20 18:33N 44°14' E 009°02'1211.8
2014-Aug-20 17:33N 44°02' E 009°07'1211.6
2014-Aug-20 16:33N 43°52' E 009°13'1211.7
2014-Aug-20 15:33N 43°40' E 009°18'1111.5
2014-Aug-20 14:33N 43°30' E 009°24'  

Dump ship's entire track history